Time;durP1;ratioP1;P1;durP2;ratioP2;P2;SDS_P1;SDS_P2;PMS_P1;PMS_P2;Temp;Humidity;BMP_temperature;BMP_pressure;BME280_temperature;BME280_humidity;BME280_pressure;Samples;Min_cycle;Max_cycle;Signal;HPM_P1;HPM_P2
2024/03/07 00:00:01;;;;;;;4.43;3.83;;;;;;;;;;1039395;28;20469;-74
2024/03/07 00:00:31;;;;;;;5.07;3.72;;;;;;;;;;1041428;28;20094;-74
2024/03/07 00:01:03;;;;;;;2.65;2.45;;;;;;;;;;1047597;28;20025;-74
2024/03/07 00:01:34;;;;;;;6.95;4.70;;;;;;;;;;1045571;28;20021;-74
2024/03/07 00:02:04;;;;;;;6.00;3.15;;;;;;;;;;1049978;28;20028;-73
2024/03/07 00:02:35;;;;;;;4.03;2.58;;;;;;;;;;1045711;28;20029;-73
2024/03/07 00:03:05;;;;;;;8.85;3.50;;;;;;;;;;1045768;28;20025;-74
2024/03/07 00:03:36;;;;;;;3.70;2.80;;;;;;;;;;1048892;28;20020;-74
2024/03/07 00:04:06;;;;;;;4.22;3.05;;;;;;;;;;1049422;28;20077;-74
2024/03/07 00:04:37;;;;;;;4.47;3.95;;;;;;;;;;1049858;28;20024;-74
2024/03/07 00:05:08;;;;;;;15.43;5.80;;;;;;;;;;1050601;28;20024;-74
2024/03/07 00:05:39;;;;;;;4.88;4.45;;;;;;;;;;1049650;28;20035;-74
2024/03/07 00:06:10;;;;;;;5.05;4.10;;;;;;;;;;1049556;28;20017;-74
2024/03/07 00:06:41;;;;;;;3.78;2.70;;;;;;;;;;1048946;28;20020;-73
2024/03/07 00:07:12;;;;;;;5.35;1.90;;;;;;;;;;1049723;28;20021;-73
2024/03/07 00:07:43;;;;;;;1.85;1.75;;;;;;;;;;1047545;28;20052;-74
2024/03/07 00:08:13;;;;;;;4.28;3.97;;;;;;;;;;1047670;28;20034;-74
2024/03/07 00:08:43;;;;;;;13.23;8.73;;;;;;;;;;1043561;28;20056;-74
2024/03/07 00:09:15;;;;;;;4.53;3.92;;;;;;;;;;1047327;28;20035;-74
2024/03/07 00:09:46;;;;;;;3.05;2.78;;;;;;;;;;1049176;28;20111;-74
2024/03/07 00:10:16;;;;;;;4.25;3.00;;;;;;;;;;1049729;28;20021;-74
2024/03/07 00:10:47;;;;;;;5.65;3.70;;;;;;;;;;1050333;28;20013;-74
2024/03/07 00:11:18;;;;;;;7.57;5.22;;;;;;;;;;1050058;28;20498;-74
2024/03/07 00:11:49;;;;;;;4.22;2.65;;;;;;;;;;1049372;28;20027;-73
2024/03/07 00:12:19;;;;;;;3.05;2.85;;;;;;;;;;1049787;28;20027;-73
2024/03/07 00:12:50;;;;;;;2.75;2.55;;;;;;;;;;1047372;28;20102;-73
2024/03/07 00:13:21;;;;;;;3.97;3.58;;;;;;;;;;1047590;28;20419;-73
2024/03/07 00:13:51;;;;;;;2.97;2.78;;;;;;;;;;1045849;28;20114;-74
2024/03/07 00:14:26;;;;;;;5.20;2.53;;;;;;;;;;1049422;28;20032;-74
2024/03/07 00:14:57;;;;;;;16.27;4.10;;;;;;;;;;1049783;28;20120;-74
2024/03/07 00:15:29;;;;;;;2.00;1.90;;;;;;;;;;1049266;28;20043;-73
2024/03/07 00:16:01;;;;;;;7.00;4.03;;;;;;;;;;1048919;28;20024;-74
2024/03/07 00:16:33;;;;;;;5.07;4.55;;;;;;;;;;1049781;28;20020;-74
2024/03/07 00:17:04;;;;;;;7.53;3.75;;;;;;;;;;1048581;28;20020;-74
2024/03/07 00:17:35;;;;;;;12.93;6.57;;;;;;;;;;1049911;28;20554;-74
2024/03/07 00:18:05;;;;;;;6.05;3.88;;;;;;;;;;1049395;28;20027;-74
2024/03/07 00:18:36;;;;;;;2.63;1.92;;;;;;;;;;1047673;28;20020;-73
2024/03/07 00:19:07;;;;;;;2.42;2.30;;;;;;;;;;1047463;28;20048;-74
2024/03/07 00:19:37;;;;;;;4.28;3.95;;;;;;;;;;1047789;28;20009;-73
2024/03/07 00:20:14;;;;;;;2.13;1.92;;;;;;;;;;1049804;28;20024;-73
2024/03/07 00:20:44;;;;;;;2.28;2.17;;;;;;;;;;1049801;28;20015;-74
2024/03/07 00:21:15;;;;;;;4.03;2.90;;;;;;;;;;1049534;28;20023;-73
2024/03/07 00:21:45;;;;;;;4.68;4.30;;;;;;;;;;1049335;28;20024;-74
2024/03/07 00:22:16;;;;;;;3.78;2.95;;;;;;;;;;1049554;28;20020;-74
2024/03/07 00:22:46;;;;;;;14.57;6.53;;;;;;;;;;1049713;28;20052;-74
2024/03/07 00:23:17;;;;;;;2.50;2.35;;;;;;;;;;1050202;28;20031;-74
2024/03/07 00:23:48;;;;;;;2.97;2.67;;;;;;;;;;1049401;28;20036;-74
2024/03/07 00:24:19;;;;;;;2.95;2.72;;;;;;;;;;1049911;28;20046;-74
2024/03/07 00:24:49;;;;;;;2.00;1.90;;;;;;;;;;1049006;28;20426;-74
2024/03/07 00:25:21;;;;;;;7.95;5.35;;;;;;;;;;1048332;28;20530;-73
2024/03/07 00:25:52;;;;;;;2.33;2.22;;;;;;;;;;1048822;28;20024;-74
2024/03/07 00:26:22;;;;;;;10.57;6.68;;;;;;;;;;1049741;28;20095;-74
2024/03/07 00:26:53;;;;;;;5.70;3.83;;;;;;;;;;1050010;28;20125;-74
2024/03/07 00:27:24;;;;;;;4.68;3.33;;;;;;;;;;1048544;28;20030;-73
2024/03/07 00:27:57;;;;;;;4.65;4.25;;;;;;;;;;1049976;28;20123;-74
2024/03/07 00:28:32;;;;;;;2.13;2.03;;;;;;;;;;1049489;28;20058;-74
2024/03/07 00:29:02;;;;;;;0.88;0.88;;;;;;;;;;1049211;28;20024;-74
2024/03/07 00:29:35;;;;;;;3.53;3.08;;;;;;;;;;1048522;28;20017;-74
2024/03/07 00:30:08;;;;;;;2.15;2.05;;;;;;;;;;1050011;28;20031;-74
2024/03/07 00:30:38;;;;;;;2.65;2.45;;;;;;;;;;1048191;28;20513;-74
2024/03/07 00:31:09;;;;;;;4.90;3.42;;;;;;;;;;1048724;28;20028;-74
2024/03/07 00:31:40;;;;;;;21.00;4.43;;;;;;;;;;1049917;28;20109;-74
2024/03/07 00:32:10;;;;;;;3.03;2.45;;;;;;;;;;1049891;28;20056;-74
2024/03/07 00:32:41;;;;;;;5.57;3.95;;;;;;;;;;1047909;28;20023;-74
2024/03/07 00:33:12;;;;;;;2.50;2.30;;;;;;;;;;1050110;28;20027;-74
2024/03/07 00:33:42;;;;;;;14.70;3.58;;;;;;;;;;1050073;28;20027;-74
2024/03/07 00:34:16;;;;;;;10.02;4.10;;;;;;;;;;1048716;28;20024;-74
2024/03/07 00:34:47;;;;;;;7.20;5.53;;;;;;;;;;1048882;28;20422;-74
2024/03/07 00:35:18;;;;;;;11.52;3.40;;;;;;;;;;1049658;28;20107;-74
2024/03/07 00:35:49;;;;;;;3.63;3.33;;;;;;;;;;1048754;28;20499;-74
2024/03/07 00:36:21;;;;;;;9.93;4.10;;;;;;;;;;1049979;28;20059;-74
2024/03/07 00:36:51;;;;;;;2.80;2.25;;;;;;;;;;1047828;28;20020;-74
2024/03/07 00:37:23;;;;;;;5.47;3.15;;;;;;;;;;1049705;28;20025;-74
2024/03/07 00:37:54;;;;;;;36.85;5.38;;;;;;;;;;1049994;28;20036;-74
2024/03/07 00:38:24;;;;;;;4.25;3.72;;;;;;;;;;1050889;28;20020;-74
2024/03/07 00:38:55;;;;;;;3.40;1.92;;;;;;;;;;1049984;28;20121;-74
2024/03/07 00:39:25;;;;;;;2.97;2.72;;;;;;;;;;1046644;28;20039;-74
2024/03/07 00:39:56;;;;;;;11.05;5.70;;;;;;;;;;1047810;28;20115;-73
2024/03/07 00:40:26;;;;;;;4.45;4.10;;;;;;;;;;1046031;28;20074;-74
2024/03/07 00:40:57;;;;;;;5.28;3.58;;;;;;;;;;1049529;28;20021;-74
2024/03/07 00:41:27;;;;;;;3.17;2.88;;;;;;;;;;1050308;28;20471;-74
2024/03/07 00:41:58;;;;;;;2.35;2.25;;;;;;;;;;1050206;28;20035;-74
2024/03/07 00:42:28;;;;;;;3.00;2.80;;;;;;;;;;1050096;28;20068;-74
2024/03/07 00:42:59;;;;;;;9.45;4.03;;;;;;;;;;1049631;28;20024;-74
2024/03/07 00:43:30;;;;;;;7.80;5.07;;;;;;;;;;1049848;28;20013;-73
2024/03/07 00:44:01;;;;;;;6.32;3.78;;;;;;;;;;1049870;28;20024;-74
2024/03/07 00:44:31;;;;;;;3.03;2.83;;;;;;;;;;1050237;28;20491;-73
2024/03/07 00:45:03;;;;;;;3.60;3.33;;;;;;;;;;1049520;28;20031;-74
2024/03/07 00:45:34;;;;;;;7.97;4.43;;;;;;;;;;1048976;28;20526;-74
2024/03/07 00:46:06;;;;;;;1.25;1.25;;;;;;;;;;1049827;28;20051;-74
2024/03/07 00:46:37;;;;;;;6.82;4.10;;;;;;;;;;1049711;28;20071;-73
2024/03/07 00:47:07;;;;;;;1.88;1.77;;;;;;;;;;1050061;28;20020;-74
2024/03/07 00:47:38;;;;;;;3.50;3.30;;;;;;;;;;1050402;28;20071;-74
2024/03/07 00:48:09;;;;;;;3.65;3.35;;;;;;;;;;1050684;28;20051;-74
2024/03/07 00:48:40;;;;;;;8.68;2.58;;;;;;;;;;1050533;28;20028;-74
2024/03/07 00:49:10;;;;;;;10.40;4.65;;;;;;;;;;1050864;28;20016;-74
2024/03/07 00:49:41;;;;;;;3.38;3.08;;;;;;;;;;1049152;28;20060;-74
2024/03/07 00:50:11;;;;;;;3.65;2.50;;;;;;;;;;1051090;28;20055;-74
2024/03/07 00:50:45;;;;;;;1.02;1.00;;;;;;;;;;1050196;28;20111;-74
2024/03/07 00:51:15;;;;;;;3.33;3.05;;;;;;;;;;1048766;28;20156;-74
2024/03/07 00:51:46;;;;;;;5.88;1.10;;;;;;;;;;1050142;28;20429;-74
2024/03/07 00:52:16;;;;;;;2.65;2.47;;;;;;;;;;1050927;28;20785;-73
2024/03/07 00:52:48;;;;;;;8.57;2.92;;;;;;;;;;1050240;28;20023;-73
2024/03/07 00:53:18;;;;;;;1.55;1.45;;;;;;;;;;1049293;28;20502;-74
2024/03/07 00:53:49;;;;;;;6.75;2.33;;;;;;;;;;1050327;28;20028;-74
2024/03/07 00:54:19;;;;;;;13.48;5.72;;;;;;;;;;1050447;28;20036;-74
2024/03/07 00:54:50;;;;;;;4.07;3.13;;;;;;;;;;1050823;28;20028;-74
2024/03/07 00:55:20;;;;;;;4.25;3.97;;;;;;;;;;1050820;28;20146;-74
2024/03/07 00:55:50;;;;;;;3.78;3.58;;;;;;;;;;1051176;28;20479;-73
2024/03/07 00:56:21;;;;;;;2.95;2.38;;;;;;;;;;1049485;28;20635;-73
2024/03/07 00:56:52;;;;;;;8.43;3.33;;;;;;;;;;1050418;28;20483;-73
2024/03/07 00:57:22;;;;;;;4.78;2.65;;;;;;;;;;1050449;28;20470;-74
2024/03/07 00:57:52;;;;;;;10.80;5.82;;;;;;;;;;1049604;28;20028;-74
2024/03/07 00:58:23;;;;;;;3.60;1.95;;;;;;;;;;1050072;28;20025;-74
2024/03/07 00:58:54;;;;;;;1.58;1.48;;;;;;;;;;1050252;28;20017;-74
2024/03/07 00:59:24;;;;;;;3.28;3.08;;;;;;;;;;1050450;28;20036;-74
2024/03/07 00:59:56;;;;;;;2.63;2.53;;;;;;;;;;1050756;28;20027;-74
2024/03/07 01:00:28;;;;;;;9.75;3.95;;;;;;;;;;1050552;28;20032;-74
2024/03/07 01:00:58;;;;;;;5.35;3.47;;;;;;;;;;1050763;28;20376;-73
2024/03/07 01:01:29;;;;;;;5.50;4.82;;;;;;;;;;1050530;28;20020;-73
2024/03/07 01:01:59;;;;;;;1.92;1.70;;;;;;;;;;1051424;28;20036;-73
2024/03/07 01:02:30;;;;;;;4.03;3.67;;;;;;;;;;1050725;28;20073;-74
2024/03/07 01:03:01;;;;;;;2.65;2.45;;;;;;;;;;1049923;28;20020;-73
2024/03/07 01:03:31;;;;;;;5.70;3.30;;;;;;;;;;1050236;28;20155;-74
2024/03/07 01:04:02;;;;;;;2.90;2.35;;;;;;;;;;1050329;28;20030;-74
2024/03/07 01:04:33;;;;;;;2.10;1.77;;;;;;;;;;1050588;28;20023;-74
2024/03/07 01:05:08;;;;;;;5.93;3.20;;;;;;;;;;1050322;28;20114;-74
2024/03/07 01:05:39;;;;;;;4.00;2.95;;;;;;;;;;1050670;28;20032;-74
2024/03/07 01:06:12;;;;;;;2.05;1.95;;;;;;;;;;1050598;28;20031;-74
2024/03/07 01:06:43;;;;;;;4.57;4.25;;;;;;;;;;1049100;28;20313;-74
2024/03/07 01:07:13;;;;;;;6.10;4.13;;;;;;;;;;1050086;28;20024;-73
2024/03/07 01:07:46;;;;;;;7.90;5.07;;;;;;;;;;1049767;28;20062;-73
2024/03/07 01:08:16;;;;;;;3.90;3.67;;;;;;;;;;1049244;28;20052;-74
2024/03/07 01:08:46;;;;;;;7.22;1.77;;;;;;;;;;1049529;28;20502;-74
2024/03/07 01:09:19;;;;;;;4.45;4.03;;;;;;;;;;1050194;28;20074;-74
2024/03/07 01:09:49;;;;;;;4.35;2.45;;;;;;;;;;1050245;28;20542;-74
2024/03/07 01:10:20;;;;;;;2.67;2.58;;;;;;;;;;1050662;28;20028;-73
2024/03/07 01:10:50;;;;;;;1.60;1.52;;;;;;;;;;1049342;28;20024;-74
2024/03/07 01:11:21;;;;;;;2.38;2.10;;;;;;;;;;1049951;28;20382;-74
2024/03/07 01:11:51;;;;;;;8.02;5.28;;;;;;;;;;1050316;28;20031;-74
2024/03/07 01:12:24;;;;;;;7.35;4.85;;;;;;;;;;1050061;28;20476;-73
2024/03/07 01:12:57;;;;;;;5.22;4.80;;;;;;;;;;1049148;28;20081;-74
2024/03/07 01:13:27;;;;;;;4.38;3.97;;;;;;;;;;1050287;28;20454;-74
2024/03/07 01:13:58;;;;;;;5.18;4.03;;;;;;;;;;1050115;28;20016;-73
2024/03/07 01:14:30;;;;;;;2.30;2.15;;;;;;;;;;1050897;28;20404;-73
2024/03/07 01:15:01;;;;;;;7.70;4.60;;;;;;;;;;1046944;28;20031;-74
2024/03/07 01:15:32;;;;;;;3.60;2.50;;;;;;;;;;1046108;28;20021;-74
2024/03/07 01:16:02;;;;;;;0.95;0.90;;;;;;;;;;1043585;28;20013;-74
2024/03/07 01:16:34;;;;;;;2.20;2.10;;;;;;;;;;1045217;28;20078;-73
2024/03/07 01:17:07;;;;;;;3.20;2.90;;;;;;;;;;1044850;28;20052;-74
2024/03/07 01:17:38;;;;;;;15.48;4.80;;;;;;;;;;1043716;28;20488;-73
2024/03/07 01:18:08;;;;;;;19.15;2.58;;;;;;;;;;1048197;28;20028;-73
2024/03/07 01:18:39;;;;;;;5.60;4.10;;;;;;;;;;1043837;28;20365;-73
2024/03/07 01:19:09;;;;;;;4.35;3.78;;;;;;;;;;1045593;28;20020;-73
2024/03/07 01:19:39;;;;;;;3.50;3.10;;;;;;;;;;1051084;28;20032;-73
2024/03/07 01:20:11;;;;;;;5.53;2.97;;;;;;;;;;1050072;28;20439;-73
2024/03/07 01:20:41;;;;;;;6.22;2.03;;;;;;;;;;1050387;28;20020;-74
2024/03/07 01:21:13;;;;;;;5.70;4.10;;;;;;;;;;1050344;28;20028;-74
2024/03/07 01:21:43;;;;;;;17.85;6.72;;;;;;;;;;1049391;28;20028;-74
2024/03/07 01:22:15;;;;;;;5.53;2.03;;;;;;;;;;1049571;28;20390;-75
2024/03/07 01:22:45;;;;;;;8.52;4.70;;;;;;;;;;1050375;28;20110;-74
2024/03/07 01:23:16;;;;;;;2.40;2.20;;;;;;;;;;1049517;28;20024;-74
2024/03/07 01:23:46;;;;;;;7.22;5.95;;;;;;;;;;1046822;28;20054;-74
2024/03/07 01:24:17;;;;;;;5.10;3.78;;;;;;;;;;1048254;28;20029;-74
2024/03/07 01:24:48;;;;;;;7.38;5.13;;;;;;;;;;1047500;28;20032;-74
2024/03/07 01:25:18;;;;;;;3.13;2.85;;;;;;;;;;1043614;28;20056;-74
2024/03/07 01:25:49;;;;;;;8.20;3.45;;;;;;;;;;1044981;28;20028;-74
2024/03/07 01:26:19;;;;;;;9.65;6.28;;;;;;;;;;1041426;28;20024;-74
2024/03/07 01:26:50;;;;;;;11.00;4.47;;;;;;;;;;1042048;28;20075;-74
2024/03/07 01:27:20;;;;;;;5.25;3.72;;;;;;;;;;1046196;28;20020;-74
2024/03/07 01:27:51;;;;;;;6.68;6.07;;;;;;;;;;1049697;28;20046;-74
2024/03/07 01:28:22;;;;;;;14.20;7.80;;;;;;;;;;1050464;28;20028;-74
2024/03/07 01:28:54;;;;;;;4.40;3.65;;;;;;;;;;1048823;28;20562;-74
2024/03/07 01:29:25;;;;;;;4.32;3.42;;;;;;;;;;1048896;28;20031;-75
2024/03/07 01:29:55;;;;;;;15.93;9.88;;;;;;;;;;1048342;28;20021;-74
2024/03/07 01:30:28;;;;;;;8.82;2.28;;;;;;;;;;1047976;28;20459;-74
2024/03/07 01:30:58;;;;;;;6.90;3.70;;;;;;;;;;1047909;28;20034;-74
2024/03/07 01:31:28;;;;;;;10.00;5.30;;;;;;;;;;1045887;28;20413;-74
2024/03/07 01:31:59;;;;;;;7.40;3.88;;;;;;;;;;1045734;28;20535;-74
2024/03/07 01:32:30;;;;;;;3.83;3.47;;;;;;;;;;1048301;28;20020;-74
2024/03/07 01:33:00;;;;;;;2.70;2.50;;;;;;;;;;1047745;28;20115;-74
2024/03/07 01:33:31;;;;;;;4.47;3.65;;;;;;;;;;1049058;28;20403;-74
2024/03/07 01:34:01;;;;;;;2.67;2.45;;;;;;;;;;1048937;28;20384;-74
2024/03/07 01:34:31;;;;;;;9.32;5.10;;;;;;;;;;1050311;28;20032;-74
2024/03/07 01:35:06;;;;;;;8.43;4.43;;;;;;;;;;1046016;28;20048;-74
2024/03/07 01:35:37;;;;;;;1.50;1.40;;;;;;;;;;1043828;28;20021;-74
2024/03/07 01:36:07;;;;;;;10.80;2.13;;;;;;;;;;1046950;28;20052;-74
2024/03/07 01:36:38;;;;;;;3.90;3.47;;;;;;;;;;1048166;28;20024;-74
2024/03/07 01:37:08;;;;;;;2.75;2.13;;;;;;;;;;1045652;28;20424;-74
2024/03/07 01:37:39;;;;;;;2.53;2.30;;;;;;;;;;1049873;28;20468;-74
2024/03/07 01:38:10;;;;;;;2.33;1.92;;;;;;;;;;1049876;28;20134;-74
2024/03/07 01:38:41;;;;;;;2.30;2.10;;;;;;;;;;1048608;28;20081;-75
2024/03/07 01:39:12;;;;;;;7.07;3.88;;;;;;;;;;1049096;28;20088;-75
2024/03/07 01:39:43;;;;;;;4.88;1.75;;;;;;;;;;1047497;28;20460;-74
2024/03/07 01:40:16;;;;;;;5.30;1.65;;;;;;;;;;1050025;28;20027;-74
2024/03/07 01:40:46;;;;;;;4.10;2.47;;;;;;;;;;1047610;28;20023;-74
2024/03/07 01:41:17;;;;;;;2.40;2.28;;;;;;;;;;1048230;28;20036;-74
2024/03/07 01:41:47;;;;;;;4.47;2.95;;;;;;;;;;1049664;28;20029;-74
2024/03/07 01:42:18;;;;;;;3.30;2.85;;;;;;;;;;1050148;28;20020;-74
2024/03/07 01:42:49;;;;;;;7.57;5.68;;;;;;;;;;1050320;28;20567;-74
2024/03/07 01:43:21;;;;;;;13.77;5.72;;;;;;;;;;1048957;28;20020;-74
2024/03/07 01:43:51;;;;;;;3.80;3.50;;;;;;;;;;1049938;28;20104;-74
2024/03/07 01:44:22;;;;;;;1.13;0.82;;;;;;;;;;1048031;28;20094;-74
2024/03/07 01:44:52;;;;;;;2.08;1.60;;;;;;;;;;1045327;28;20111;-75
2024/03/07 01:45:23;;;;;;;4.05;3.70;;;;;;;;;;1048127;28;20602;-74
2024/03/07 01:45:54;;;;;;;2.75;1.58;;;;;;;;;;1048632;28;20158;-74
2024/03/07 01:46:25;;;;;;;2.95;2.75;;;;;;;;;;1046855;28;20319;-74
2024/03/07 01:46:55;;;;;;;5.35;2.60;;;;;;;;;;1044029;28;20481;-74
2024/03/07 01:47:25;;;;;;;14.02;3.97;;;;;;;;;;1044843;28;20398;-74
2024/03/07 01:47:56;;;;;;;11.07;3.63;;;;;;;;;;1048950;28;20074;-74
2024/03/07 01:48:29;;;;;;;10.23;1.95;;;;;;;;;;1046090;28;20021;-75
2024/03/07 01:48:59;;;;;;;4.78;2.65;;;;;;;;;;1048481;28;20032;-74
2024/03/07 01:49:30;;;;;;;8.55;4.75;;;;;;;;;;1047917;28;20028;-74
2024/03/07 01:50:01;;;;;;;1.65;1.55;;;;;;;;;;1048552;28;20122;-74
2024/03/07 01:50:32;;;;;;;3.72;3.15;;;;;;;;;;1049177;28;20012;-74
2024/03/07 01:51:05;;;;;;;1.92;1.85;;;;;;;;;;1049939;28;20036;-74
2024/03/07 01:51:36;;;;;;;8.25;3.70;;;;;;;;;;1046491;28;20029;-74
2024/03/07 01:52:07;;;;;;;16.30;2.80;;;;;;;;;;1050511;28;20028;-74
2024/03/07 01:52:41;;;;;;;3.97;3.60;;;;;;;;;;1045964;28;20023;-74
2024/03/07 01:53:12;;;;;;;17.75;6.93;;;;;;;;;;1045307;28;20495;-75
2024/03/07 01:53:43;;;;;;;5.40;3.70;;;;;;;;;;1049041;28;20121;-74
2024/03/07 01:54:13;;;;;;;6.63;4.55;;;;;;;;;;1047673;28;20025;-74
2024/03/07 01:54:44;;;;;;;4.90;4.03;;;;;;;;;;1048384;28;20012;-75
2024/03/07 01:55:16;;;;;;;3.35;2.25;;;;;;;;;;1046734;28;20048;-75
2024/03/07 01:55:46;;;;;;;3.83;2.83;;;;;;;;;;1048028;28;20035;-75
2024/03/07 01:56:17;;;;;;;20.92;3.15;;;;;;;;;;1046513;28;20047;-74
2024/03/07 01:56:48;;;;;;;8.85;4.20;;;;;;;;;;1043546;28;20024;-75
2024/03/07 01:57:18;;;;;;;2.55;1.95;;;;;;;;;;1040881;28;20087;-74
2024/03/07 01:57:49;;;;;;;4.45;3.28;;;;;;;;;;1042454;28;20056;-74
2024/03/07 01:58:20;;;;;;;6.60;3.22;;;;;;;;;;1042492;28;20029;-74
2024/03/07 01:58:51;;;;;;;13.10;4.25;;;;;;;;;;1044925;28;20438;-74
2024/03/07 01:59:22;;;;;;;2.30;2.15;;;;;;;;;;1043271;28;20029;-74
2024/03/07 01:59:53;;;;;;;4.05;3.72;;;;;;;;;;1043388;28;20457;-74
2024/03/07 02:00:23;;;;;;;8.15;4.82;;;;;;;;;;1050039;28;20415;-75
2024/03/07 02:00:53;;;;;;;6.35;4.25;;;;;;;;;;1046599;28;20538;-74
2024/03/07 02:01:24;;;;;;;7.45;3.58;;;;;;;;;;1048025;28;20364;-74
2024/03/07 02:01:55;;;;;;;5.10;2.15;;;;;;;;;;1046501;28;20028;-74
2024/03/07 02:02:25;;;;;;;46.45;5.38;;;;;;;;;;1047538;28;20055;-74
2024/03/07 02:02:56;;;;;;;5.88;3.38;;;;;;;;;;1047976;28;20024;-74
2024/03/07 02:03:26;;;;;;;4.90;3.85;;;;;;;;;;1045472;28;20016;-74
2024/03/07 02:03:57;;;;;;;10.77;4.50;;;;;;;;;;1049422;28;20020;-75
2024/03/07 02:04:28;;;;;;;11.60;4.95;;;;;;;;;;1050436;28;20024;-75
2024/03/07 02:04:58;;;;;;;7.65;2.97;;;;;;;;;;1049267;28;20057;-74
2024/03/07 02:05:29;;;;;;;3.83;3.55;;;;;;;;;;1050028;28;20027;-74
2024/03/07 02:06:00;;;;;;;5.90;3.45;;;;;;;;;;1050175;28;20031;-74
2024/03/07 02:06:32;;;;;;;2.95;2.75;;;;;;;;;;1048397;28;20027;-74
2024/03/07 02:07:02;;;;;;;3.42;3.13;;;;;;;;;;1048911;28;20032;-74
2024/03/07 02:07:33;;;;;;;8.80;3.88;;;;;;;;;;1048373;28;20485;-74
2024/03/07 02:08:03;;;;;;;6.95;4.47;;;;;;;;;;1049372;28;20089;-74
2024/03/07 02:08:34;;;;;;;8.43;3.80;;;;;;;;;;1043389;28;20029;-74
2024/03/07 02:09:05;;;;;;;6.38;3.47;;;;;;;;;;1043449;28;20025;-74
2024/03/07 02:09:36;;;;;;;2.97;2.80;;;;;;;;;;1045258;28;20016;-76
2024/03/07 02:10:09;;;;;;;5.68;3.05;;;;;;;;;;1043471;28;20029;-74
2024/03/07 02:10:39;;;;;;;12.60;5.30;;;;;;;;;;1040242;28;20026;-74
2024/03/07 02:11:10;;;;;;;13.77;4.90;;;;;;;;;;1041483;28;20148;-73
2024/03/07 02:11:40;;;;;;;12.50;5.07;;;;;;;;;;1041857;28;20025;-74
2024/03/07 02:12:11;;;;;;;4.32;3.92;;;;;;;;;;1043121;28;20077;-74
2024/03/07 02:12:41;;;;;;;3.53;3.22;;;;;;;;;;1046235;28;20024;-74
2024/03/07 02:13:12;;;;;;;5.68;2.45;;;;;;;;;;1044816;28;20111;-73
2024/03/07 02:13:43;;;;;;;23.73;5.18;;;;;;;;;;1046856;28;20031;-74
2024/03/07 02:14:13;;;;;;;6.95;5.72;;;;;;;;;;1048703;28;20415;-74
2024/03/07 02:14:43;;;;;;;2.78;2.58;;;;;;;;;;1049248;28;20034;-74
2024/03/07 02:15:14;;;;;;;8.45;6.22;;;;;;;;;;1046796;28;20036;-74
2024/03/07 02:15:45;;;;;;;5.53;3.80;;;;;;;;;;1046418;28;20016;-74
2024/03/07 02:16:15;;;;;;;20.20;7.22;;;;;;;;;;1046975;28;20601;-74
2024/03/07 02:16:46;;;;;;;5.20;4.80;;;;;;;;;;1048630;28;20027;-74
2024/03/07 02:17:16;;;;;;;3.90;3.67;;;;;;;;;;1045118;28;20488;-74
2024/03/07 02:17:47;;;;;;;8.73;3.65;;;;;;;;;;1042295;28;20537;-74
2024/03/07 02:18:17;;;;;;;16.75;6.65;;;;;;;;;;1044138;28;20020;-74
2024/03/07 02:18:48;;;;;;;3.92;3.53;;;;;;;;;;1041480;28;20044;-74
2024/03/07 02:19:19;;;;;;;4.85;4.35;;;;;;;;;;1042934;28;20624;-75
2024/03/07 02:19:50;;;;;;;3.60;2.55;;;;;;;;;;1044174;28;20381;-74
2024/03/07 02:20:21;;;;;;;3.42;2.55;;;;;;;;;;1048303;28;20574;-74
2024/03/07 02:20:51;;;;;;;6.55;4.15;;;;;;;;;;1048053;28;20943;-74
2024/03/07 02:21:23;;;;;;;8.55;7.57;;;;;;;;;;1048305;28;20097;-74
2024/03/07 02:21:53;;;;;;;5.97;5.43;;;;;;;;;;1047377;28;20476;-74
2024/03/07 02:22:26;;;;;;;4.20;3.90;;;;;;;;;;1047186;28;20032;-74
2024/03/07 02:22:56;;;;;;;3.40;3.17;;;;;;;;;;1045132;28;20036;-74
2024/03/07 02:23:27;;;;;;;7.57;3.05;;;;;;;;;;1048068;28;20024;-74
2024/03/07 02:23:58;;;;;;;9.73;5.25;;;;;;;;;;1048405;28;20477;-74
2024/03/07 02:24:28;;;;;;;38.33;4.00;;;;;;;;;;1048933;28;20535;-74
2024/03/07 02:24:58;;;;;;;13.02;4.05;;;;;;;;;;1046298;28;20044;-74
2024/03/07 02:25:30;;;;;;;2.80;2.60;;;;;;;;;;1044895;28;20466;-74
2024/03/07 02:26:00;;;;;;;4.30;3.60;;;;;;;;;;1046838;28;20031;-74
2024/03/07 02:26:31;;;;;;;9.25;4.72;;;;;;;;;;1048047;28;20024;-75
2024/03/07 02:27:01;;;;;;;11.13;3.28;;;;;;;;;;1048615;28;20029;-75
2024/03/07 02:27:32;;;;;;;6.35;4.15;;;;;;;;;;1047709;28;20111;-75
2024/03/07 02:28:04;;;;;;;8.55;7.18;;;;;;;;;;1047523;28;20036;-75
2024/03/07 02:28:35;;;;;;;3.65;3.38;;;;;;;;;;1037349;28;20732;-75
2024/03/07 02:29:05;;;;;;;7.60;6.55;;;;;;;;;;1045578;28;20118;-75
2024/03/07 02:29:36;;;;;;;5.30;4.82;;;;;;;;;;1046311;28;20021;-75
2024/03/07 02:30:08;;;;;;;6.25;2.78;;;;;;;;;;1046826;28;20536;-75
2024/03/07 02:30:39;;;;;;;4.05;2.17;;;;;;;;;;1044633;28;20032;-75
2024/03/07 02:31:09;;;;;;;9.82;4.05;;;;;;;;;;1047071;28;20093;-75
2024/03/07 02:31:41;;;;;;;3.75;3.47;;;;;;;;;;1044100;28;20038;-75
2024/03/07 02:32:11;;;;;;;7.80;4.10;;;;;;;;;;1043995;28;20105;-75
2024/03/07 02:32:42;;;;;;;5.05;3.70;;;;;;;;;;1043933;28;20036;-75
2024/03/07 02:33:12;;;;;;;6.03;3.20;;;;;;;;;;1046721;28;20026;-75
2024/03/07 02:33:43;;;;;;;4.40;3.67;;;;;;;;;;1045146;28;20036;-75
2024/03/07 02:34:13;;;;;;;12.75;6.95;;;;;;;;;;1046924;28;20025;-75
2024/03/07 02:34:44;;;;;;;6.47;3.17;;;;;;;;;;1046730;28;20025;-75
2024/03/07 02:35:15;;;;;;;7.68;3.53;;;;;;;;;;1047342;28;20467;-75
2024/03/07 02:35:46;;;;;;;3.45;3.20;;;;;;;;;;1047592;28;20503;-75
2024/03/07 02:36:16;;;;;;;2.83;2.00;;;;;;;;;;1044987;28;20039;-73
2024/03/07 02:36:46;;;;;;;5.93;3.70;;;;;;;;;;1044695;28;20051;-75
2024/03/07 02:37:18;;;;;;;6.55;3.33;;;;;;;;;;1042251;28;20086;-73
2024/03/07 02:37:48;;;;;;;2.10;1.42;;;;;;;;;;1044606;28;20098;-74
2024/03/07 02:38:19;;;;;;;13.07;5.28;;;;;;;;;;1043441;28;20021;-74
2024/03/07 02:38:49;;;;;;;12.10;6.40;;;;;;;;;;1042822;28;20028;-73
2024/03/07 02:39:20;;;;;;;7.07;3.15;;;;;;;;;;1045950;28;20024;-73
2024/03/07 02:39:51;;;;;;;2.67;2.47;;;;;;;;;;1048093;28;20036;-73
2024/03/07 02:40:21;;;;;;;5.22;4.82;;;;;;;;;;1045114;28;20024;-73
2024/03/07 02:40:52;;;;;;;6.90;3.15;;;;;;;;;;1048063;28;20024;-74
2024/03/07 02:41:23;;;;;;;5.50;2.17;;;;;;;;;;1043477;28;20083;-73
2024/03/07 02:41:54;;;;;;;2.85;2.63;;;;;;;;;;1040540;28;20662;-73
2024/03/07 02:42:25;;;;;;;2.13;1.88;;;;;;;;;;1041890;28;20063;-73
2024/03/07 02:42:56;;;;;;;1.25;1.25;;;;;;;;;;1041289;28;20058;-74
2024/03/07 02:43:28;;;;;;;10.00;4.18;;;;;;;;;;1041692;28;20029;-75
2024/03/07 02:43:59;;;;;;;2.08;1.98;;;;;;;;;;1040846;28;20033;-75
2024/03/07 02:44:31;;;;;;;2.40;1.67;;;;;;;;;;1040689;28;20117;-74
2024/03/07 02:45:02;;;;;;;8.20;3.22;;;;;;;;;;1041742;28;20068;-73
2024/03/07 02:45:32;;;;;;;3.33;3.03;;;;;;;;;;1036584;28;20506;-73
2024/03/07 02:46:03;;;;;;;8.30;3.40;;;;;;;;;;1043350;28;20133;-73
2024/03/07 02:46:33;;;;;;;3.78;3.20;;;;;;;;;;1046146;28;20032;-73
2024/03/07 02:47:04;;;;;;;1.67;1.58;;;;;;;;;;1045796;28;20139;-73
2024/03/07 02:47:36;;;;;;;1.83;1.67;;;;;;;;;;1044100;28;20537;-76
2024/03/07 02:48:09;;;;;;;4.15;3.20;;;;;;;;;;1045736;28;20037;-73
2024/03/07 02:48:41;;;;;;;6.63;5.60;;;;;;;;;;1042562;28;20451;-73
2024/03/07 02:49:12;;;;;;;8.52;4.75;;;;;;;;;;1041897;28;20036;-73
2024/03/07 02:49:43;;;;;;;2.85;2.63;;;;;;;;;;1042936;28;20033;-73
2024/03/07 02:50:14;;;;;;;5.53;4.00;;;;;;;;;;1042140;28;20115;-73
2024/03/07 02:50:45;;;;;;;2.42;2.22;;;;;;;;;;1046834;28;20035;-73
2024/03/07 02:51:15;;;;;;;4.32;3.72;;;;;;;;;;1042180;28;20037;-73
2024/03/07 02:51:46;;;;;;;4.78;4.45;;;;;;;;;;1045023;28;20052;-73
2024/03/07 02:52:16;;;;;;;6.63;4.53;;;;;;;;;;1043898;28;20471;-73
2024/03/07 02:52:48;;;;;;;2.38;2.17;;;;;;;;;;1043143;28;20131;-73
2024/03/07 02:53:19;;;;;;;3.40;2.20;;;;;;;;;;1044410;28;20085;-73
2024/03/07 02:53:49;;;;;;;3.00;2.80;;;;;;;;;;1044152;28;20395;-73
2024/03/07 02:54:20;;;;;;;7.10;3.78;;;;;;;;;;1045782;28;20051;-73
2024/03/07 02:54:51;;;;;;;2.88;2.67;;;;;;;;;;1044428;28;20024;-74
2024/03/07 02:55:21;;;;;;;4.03;3.03;;;;;;;;;;1044336;28;20579;-73
2024/03/07 02:55:52;;;;;;;1.95;1.80;;;;;;;;;;1043326;28;20168;-73
2024/03/07 02:56:22;;;;;;;2.95;1.48;;;;;;;;;;1038870;28;20033;-73
2024/03/07 02:56:53;;;;;;;17.70;4.82;;;;;;;;;;1044859;28;20028;-74
2024/03/07 02:57:23;;;;;;;8.55;3.90;;;;;;;;;;1046011;28;20032;-74
2024/03/07 02:57:54;;;;;;;6.78;4.57;;;;;;;;;;1045762;28;20995;-74
2024/03/07 02:58:25;;;;;;;19.67;2.50;;;;;;;;;;1046012;28;20028;-74
2024/03/07 02:58:55;;;;;;;3.35;3.10;;;;;;;;;;1042306;28;21070;-74
2024/03/07 02:59:26;;;;;;;7.57;6.65;;;;;;;;;;1039160;28;20028;-74
2024/03/07 02:59:57;;;;;;;8.45;4.75;;;;;;;;;;1033492;28;20030;-74
2024/03/07 03:00:29;;;;;;;3.22;3.03;;;;;;;;;;1034261;28;20048;-74
2024/03/07 03:01:00;;;;;;;1.85;1.75;;;;;;;;;;1037820;28;20017;-74
2024/03/07 03:01:30;;;;;;;0.68;0.68;;;;;;;;;;1041886;28;20043;-73
2024/03/07 03:02:01;;;;;;;4.30;3.92;;;;;;;;;;1043894;28;20158;-73
2024/03/07 03:02:32;;;;;;;3.95;3.63;;;;;;;;;;1043035;28;20540;-74
2024/03/07 03:03:03;;;;;;;9.55;3.92;;;;;;;;;;1045810;28;20767;-74
2024/03/07 03:03:34;;;;;;;7.45;4.43;;;;;;;;;;1040851;28;20033;-74
2024/03/07 03:04:06;;;;;;;5.25;2.65;;;;;;;;;;1039825;28;20108;-74
2024/03/07 03:04:36;;;;;;;7.78;4.80;;;;;;;;;;1041625;28;20071;-75